Time;durP1;ratioP1;P1;durP2;ratioP2;P2;SDS_P1;SDS_P2;PMS_P1;PMS_P2;Temp;Humidity;BMP_temperature;BMP_pressure;BME280_temperature;BME280_humidity;BME280_pressure;Samples;Min_cycle;Max_cycle;Signal;HPM_P1;HPM_P2
2022/11/19 00:00:17;;;;;;;;;;;;;;;;;;4951553;29;19910;-84
2022/11/19 00:02:49;;;;;;;;;;;;;;;;;;4950850;29;19965;-84
2022/11/19 00:05:16;;;;;;;;;;;;;;;;;;4950200;29;19918;-85
2022/11/19 00:07:43;;;;;;;;;;;;;;;;;;4965081;29;19973;-85
2022/11/19 00:10:15;;;;;;;;;;;;;;;;;;4965972;28;19918;-85
2022/11/19 00:12:57;;;;;;;;;;;;;;;;;;4965558;28;19944;-85
2022/11/19 00:15:26;;;;;;;;;;;;;;;;;;4966231;28;19919;-85
2022/11/19 00:17:56;;;;;;;;;;;;;;;;;;4950114;28;19950;-85
2022/11/19 00:20:28;;;;;;;;;;;;;;;;;;4950605;29;19909;-86
2022/11/19 00:22:54;;;;;;;;;;;;;;;;;;4949614;29;19918;-85
2022/11/19 00:25:26;;;;;;;;;;;;;;;;;;4949755;29;19899;-85
2022/11/19 00:28:01;;;;;;;;;;;;;;;;;;4949648;29;19917;-85
2022/11/19 00:30:27;;;;;;;;;;;;;;;;;;4949334;29;19925;-86
2022/11/19 00:32:57;;;;;;;;;;;;;;;;;;4948873;29;19922;-85
2022/11/19 00:35:29;;;;;;;;;;;;;;;;;;4981398;28;19922;-86
2022/11/19 00:37:59;;;;;;;;;;;;;;;;;;4965071;28;19961;-85
2022/11/19 00:40:46;;;;;;;;;;;;;;;;;;4965251;29;19905;-85
2022/11/19 00:46:02;;;;;;;;;;;;;;;;;;4966138;29;19909;-85
2022/11/19 00:48:35;;;;;;;;;;;;;;;;;;4965472;28;19962;-85
2022/11/19 00:51:03;;;;;;;;;;;;;;;;;;4949947;29;19898;-85
2022/11/19 00:53:29;;;;;;;;;;;;;;;;;;4949596;29;19913;-86
2022/11/19 00:55:57;;;;;;;;;;;;;;;;;;4964813;28;19938;-85
2022/11/19 00:58:23;;;;;;;;;;;;;;;;;;4964078;29;20005;-85
2022/11/19 01:00:52;;;;;;;;;;;;;;;;;;4948354;29;19914;-84
2022/11/19 01:03:20;;;;;;;;;;;;;;;;;;4963624;29;19918;-87
2022/11/19 01:05:52;;;;;;;;;;;;;;;;;;4980759;28;20386;-83
2022/11/19 01:08:41;;;;;;;;;;;;;;;;;;4979558;29;19909;-86
2022/11/19 01:11:20;;;;;;;;;;;;;;;;;;4964855;29;19918;-85
2022/11/19 01:13:52;;;;;;;;;;;;;;;;;;4964223;29;19965;-85
2022/11/19 01:16:19;;;;;;;;;;;;;;;;;;4964521;29;19915;-84
2022/11/19 01:18:46;;;;;;;;;;;;;;;;;;4964565;28;19915;-85
2022/11/19 01:21:19;;;;;;;;;;;;;;;;;;4964470;29;19985;-86
2022/11/19 01:39:56;;;;;;;;;;;;;;;;;;5674634;23;19973;-86
2022/11/19 01:42:48;;;;;;;;;;;;;;;;;;4981876;28;19907;-85
2022/11/19 01:45:08;;;;;;;;;;;;;;;;;;4979130;29;19922;-85
2022/11/19 01:47:33;;;;;;;;;;;;;;;;;;4979971;29;19914;-82
2022/11/19 01:49:59;;;;;;;;;;;;;;;;;;4963517;29;19914;-84
2022/11/19 01:52:25;;;;;;;;;;;;;;;;;;4948830;29;19942;-84
2022/11/19 01:54:51;;;;;;;;;;;;;;;;;;4963430;28;19925;-86
2022/11/19 01:57:18;;;;;;;;;;;;;;;;;;4964978;28;19903;-84
2022/11/19 01:59:44;;;;;;;;;;;;;;;;;;4948580;29;19960;-84
2022/11/19 02:02:10;;;;;;;;;;;;;;;;;;4963822;29;19902;-84
2022/11/19 02:04:36;;;;;;;;;;;;;;;;;;4964350;28;19914;-82
2022/11/19 02:07:02;;;;;;;;;;;;;;;;;;4980391;28;19918;-86
2022/11/19 02:09:27;;;;;;;;;;;;;;;;;;4964823;28;19915;-83
2022/11/19 02:11:56;;;;;;;;;;;;;;;;;;4979782;29;19899;-83
2022/11/19 02:14:22;;;;;;;;;;;;;;;;;;4964127;28;19918;-83
2022/11/19 02:16:50;;;;;;;;;;;;;;;;;;4964175;29;19922;-83
2022/11/19 02:19:16;;;;;;;;;;;;;;;;;;4979964;28;19941;-82
2022/11/19 02:21:42;;;;;;;;;;;;;;;;;;4963352;29;19914;-82
2022/11/19 02:24:07;;;;;;;;;;;;;;;;;;4980241;29;19909;-84
2022/11/19 02:26:35;;;;;;;;;;;;;;;;;;4964837;28;19914;-83
2022/11/19 02:29:04;;;;;;;;;;;;;;;;;;4980591;28;19921;-85
2022/11/19 02:31:30;;;;;;;;;;;;;;;;;;4979662;29;19929;-85
2022/11/19 02:33:55;;;;;;;;;;;;;;;;;;4977962;29;19986;-84
2022/11/19 02:36:23;;;;;;;;;;;;;;;;;;4978678;29;19915;-85
2022/11/19 02:38:49;;;;;;;;;;;;;;;;;;4962856;29;19922;-85
2022/11/19 02:41:33;;;;;;;;;;;;;;;;;;4946779;29;19909;-84
2022/11/19 02:46:43;;;;;;;;;;;;;;;;;;4977385;29;19925;-84
2022/11/19 02:49:09;;;;;;;;;;;;;;;;;;4977153;29;19919;-83
2022/11/19 02:51:34;;;;;;;;;;;;;;;;;;4978017;29;19919;-84
2022/11/19 02:54:00;;;;;;;;;;;;;;;;;;4976617;29;19906;-83
2022/11/19 02:56:26;;;;;;;;;;;;;;;;;;4977510;29;19898;-84
2022/11/19 03:04:29;;;;;;;;;;;;;;;;;;4978596;28;19938;-83
2022/11/19 03:06:55;;;;;;;;;;;;;;;;;;4977970;29;19934;-83
2022/11/19 03:09:21;;;;;;;;;;;;;;;;;;4976063;29;19909;-84
2022/11/19 03:11:47;;;;;;;;;;;;;;;;;;4961357;29;19922;-84
2022/11/19 03:16:57;;;;;;;;;;;;;;;;;;4976300;29;19914;-85
2022/11/19 03:19:23;;;;;;;;;;;;;;;;;;4976287;29;19925;-83
2022/11/19 03:21:48;;;;;;;;;;;;;;;;;;4976045;29;19974;-83
2022/11/19 03:24:14;;;;;;;;;;;;;;;;;;4959485;29;19898;-83
2022/11/19 03:26:40;;;;;;;;;;;;;;;;;;4976718;28;19925;-83
2022/11/19 03:29:05;;;;;;;;;;;;;;;;;;4975914;29;19915;-83
2022/11/19 03:31:31;;;;;;;;;;;;;;;;;;4974173;29;20002;-83
2022/11/19 03:33:57;;;;;;;;;;;;;;;;;;4975259;29;19945;-82
2022/11/19 03:36:22;;;;;;;;;;;;;;;;;;4959165;29;19914;-84
2022/11/19 03:38:48;;;;;;;;;;;;;;;;;;4976078;29;19918;-84
2022/11/19 03:41:14;;;;;;;;;;;;;;;;;;4976304;28;19915;-83
2022/11/19 03:43:39;;;;;;;;;;;;;;;;;;4957713;29;19954;-85
2022/11/19 03:46:05;;;;;;;;;;;;;;;;;;4974667;29;19962;-84
2022/11/19 03:48:31;;;;;;;;;;;;;;;;;;4958532;29;19921;-83
2022/11/19 03:50:57;;;;;;;;;;;;;;;;;;4975873;29;19921;-82
2022/11/19 03:53:23;;;;;;;;;;;;;;;;;;4957928;29;19919;-85
2022/11/19 03:55:51;;;;;;;;;;;;;;;;;;4970427;29;19917;-84
2022/11/19 03:58:17;;;;;;;;;;;;;;;;;;4971909;29;19914;-83
2022/11/19 04:00:42;;;;;;;;;;;;;;;;;;4956294;29;19965;-83
2022/11/19 04:03:08;;;;;;;;;;;;;;;;;;4972742;29;19910;-84
2022/11/19 04:05:34;;;;;;;;;;;;;;;;;;4972714;29;19953;-84
2022/11/19 04:07:59;;;;;;;;;;;;;;;;;;4973150;29;19915;-83
2022/11/19 04:10:25;;;;;;;;;;;;;;;;;;4975167;28;19919;-84
2022/11/19 04:12:51;;;;;;;;;;;;;;;;;;4975833;28;19923;-82
2022/11/19 04:15:19;;;;;;;;;;;;;;;;;;4975363;29;19914;-83
2022/11/19 04:17:45;;;;;;;;;;;;;;;;;;4977746;28;19915;-84
2022/11/19 04:20:10;;;;;;;;;;;;;;;;;;4977917;29;19914;-82
2022/11/19 04:22:36;;;;;;;;;;;;;;;;;;4944292;29;20003;-83
2022/11/19 04:25:02;;;;;;;;;;;;;;;;;;4976818;29;19915;-82
2022/11/19 04:27:28;;;;;;;;;;;;;;;;;;4977344;29;19915;-83
2022/11/19 04:29:53;;;;;;;;;;;;;;;;;;4975719;29;19919;-84
2022/11/19 04:32:19;;;;;;;;;;;;;;;;;;4973150;29;20398;-84
2022/11/19 04:34:44;;;;;;;;;;;;;;;;;;4975617;28;19986;-83
2022/11/19 04:37:10;;;;;;;;;;;;;;;;;;4975774;29;19970;-84
2022/11/19 04:39:36;;;;;;;;;;;;;;;;;;4974944;29;19914;-83
2022/11/19 04:42:01;;;;;;;;;;;;;;;;;;4977198;28;19950;-83
2022/11/19 04:44:27;;;;;;;;;;;;;;;;;;4975349;29;19905;-84
2022/11/19 04:46:53;;;;;;;;;;;;;;;;;;4975506;28;19949;-84
2022/11/19 04:49:18;;;;;;;;;;;;;;;;;;4974936;29;19911;-83
2022/11/19 04:51:44;;;;;;;;;;;;;;;;;;4959526;29;19921;-83
2022/11/19 04:54:12;;;;;;;;;;;;;;;;;;4974723;29;19982;-83
2022/11/19 04:56:38;;;;;;;;;;;;;;;;;;4941736;29;19915;-82
2022/11/19 04:59:04;;;;;;;;;;;;;;;;;;4974407;29;19918;-83
2022/11/19 05:01:29;;;;;;;;;;;;;;;;;;4957319;29;19898;-83
2022/11/19 05:03:55;;;;;;;;;;;;;;;;;;4973852;29;19903;-82
2022/11/19 05:06:20;;;;;;;;;;;;;;;;;;4975002;29;19950;-84
2022/11/19 05:08:46;;;;;;;;;;;;;;;;;;4972006;29;19921;-83
2022/11/19 05:11:11;;;;;;;;;;;;;;;;;;4957741;29;19915;-83
2022/11/19 05:13:37;;;;;;;;;;;;;;;;;;4973854;29;19918;-83
2022/11/19 05:16:03;;;;;;;;;;;;;;;;;;4972891;29;19982;-83
2022/11/19 05:18:28;;;;;;;;;;;;;;;;;;4973630;29;19918;-83
2022/11/19 05:20:54;;;;;;;;;;;;;;;;;;4973191;29;19914;-83
2022/11/19 05:23:19;;;;;;;;;;;;;;;;;;4970211;29;19969;-82
2022/11/19 05:25:45;;;;;;;;;;;;;;;;;;4965004;28;20378;-83
2022/11/19 05:28:11;;;;;;;;;;;;;;;;;;4965640;28;19910;-81
2022/11/19 05:30:36;;;;;;;;;;;;;;;;;;4969304;29;20447;-82
2022/11/19 05:33:02;;;;;;;;;;;;;;;;;;4970397;29;19923;-83
2022/11/19 05:35:28;;;;;;;;;;;;;;;;;;4954625;29;19915;-83
2022/11/19 05:37:54;;;;;;;;;;;;;;;;;;4970931;29;19918;-82
2022/11/19 05:40:20;;;;;;;;;;;;;;;;;;4954855;29;20378;-83
2022/11/19 05:42:45;;;;;;;;;;;;;;;;;;4933518;29;19942;-83
2022/11/19 05:45:11;;;;;;;;;;;;;;;;;;4967056;28;20407;-84
2022/11/19 05:47:36;;;;;;;;;;;;;;;;;;4967265;29;20319;-82
2022/11/19 05:50:02;;;;;;;;;;;;;;;;;;4967261;29;19986;-83
2022/11/19 05:52:27;;;;;;;;;;;;;;;;;;4966879;29;19918;-83
2022/11/19 05:54:53;;;;;;;;;;;;;;;;;;4967153;28;20000;-84
2022/11/19 05:57:18;;;;;;;;;;;;;;;;;;4966948;29;20388;-82
2022/11/19 05:59:44;;;;;;;;;;;;;;;;;;4967304;29;20297;-83
2022/11/19 06:02:12;;;;;;;;;;;;;;;;;;4950616;29;19954;-83
2022/11/19 06:04:38;;;;;;;;;;;;;;;;;;4966743;29;19925;-83
2022/11/19 06:07:03;;;;;;;;;;;;;;;;;;4967819;29;19918;-82
2022/11/19 06:09:29;;;;;;;;;;;;;;;;;;4952875;29;19994;-83
2022/11/19 06:11:54;;;;;;;;;;;;;;;;;;4969975;29;19922;-83
2022/11/19 06:14:23;;;;;;;;;;;;;;;;;;4970477;29;19914;-83
2022/11/19 06:16:49;;;;;;;;;;;;;;;;;;4954485;29;19998;-82
2022/11/19 06:19:14;;;;;;;;;;;;;;;;;;4970478;29;19918;-81
2022/11/19 06:21:39;;;;;;;;;;;;;;;;;;4936837;29;19921;-82
2022/11/19 06:24:05;;;;;;;;;;;;;;;;;;4967486;29;20013;-82
2022/11/19 06:26:30;;;;;;;;;;;;;;;;;;4968899;29;19914;-82
2022/11/19 06:28:55;;;;;;;;;;;;;;;;;;4948483;29;19915;-81
2022/11/19 06:31:21;;;;;;;;;;;;;;;;;;4947472;29;20367;-82
2022/11/19 06:33:46;;;;;;;;;;;;;;;;;;4963652;29;19929;-82
2022/11/19 06:36:12;;;;;;;;;;;;;;;;;;4964185;29;20299;-80
2022/11/19 06:38:39;;;;;;;;;;;;;;;;;;4964009;28;19921;-82
2022/11/19 06:41:05;;;;;;;;;;;;;;;;;;4963518;28;19919;-82
2022/11/19 06:43:30;;;;;;;;;;;;;;;;;;4963557;29;19921;-82
2022/11/19 06:45:56;;;;;;;;;;;;;;;;;;4963559;29;19939;-82
2022/11/19 06:48:21;;;;;;;;;;;;;;;;;;4966701;29;19915;-82
2022/11/19 06:50:46;;;;;;;;;;;;;;;;;;4950569;29;19922;-81
2022/11/19 06:53:12;;;;;;;;;;;;;;;;;;4967733;29;20325;-82
2022/11/19 06:55:37;;;;;;;;;;;;;;;;;;4970386;29;19974;-82
2022/11/19 06:58:03;;;;;;;;;;;;;;;;;;4950361;29;20310;-82
2022/11/19 07:00:28;;;;;;;;;;;;;;;;;;4966461;29;19918;-81
2022/11/19 07:02:53;;;;;;;;;;;;;;;;;;4947844;29;19918;-82
2022/11/19 07:05:19;;;;;;;;;;;;;;;;;;4964426;29;20538;-81
2022/11/19 07:07:44;;;;;;;;;;;;;;;;;;4964642;29;19914;-82
2022/11/19 07:10:09;;;;;;;;;;;;;;;;;;4967424;29;19921;-81
2022/11/19 07:12:35;;;;;;;;;;;;;;;;;;4968301;29;19928;-81
2022/11/19 07:15:01;;;;;;;;;;;;;;;;;;4969446;29;20286;-83
2022/11/19 07:17:26;;;;;;;;;;;;;;;;;;4950575;29;20377;-81
2022/11/19 07:19:51;;;;;;;;;;;;;;;;;;4966506;29;20400;-82
2022/11/19 07:22:17;;;;;;;;;;;;;;;;;;4965601;29;19922;-83
2022/11/19 07:24:42;;;;;;;;;;;;;;;;;;4964833;29;19921;-82
2022/11/19 07:27:08;;;;;;;;;;;;;;;;;;4965021;29;20173;-81
2022/11/19 07:29:33;;;;;;;;;;;;;;;;;;4965279;29;19919;-81
2022/11/19 07:31:58;;;;;;;;;;;;;;;;;;4964159;29;19914;-81
2022/11/19 07:34:24;;;;;;;;;;;;;;;;;;4964053;29;19918;-82
2022/11/19 07:36:49;;;;;;;;;;;;;;;;;;4963178;29;20401;-82
2022/11/19 07:39:15;;;;;;;;;;;;;;;;;;4962252;29;20293;-79
2022/11/19 07:44:24;;;;;;;;;;;;;;;;;;4968729;29;19919;-81
2022/11/19 07:46:50;;;;;;;;;;;;;;;;;;4952008;29;19947;-82
2022/11/19 07:49:15;;;;;;;;;;;;;;;;;;4969504;29;19914;-82
2022/11/19 07:51:41;;;;;;;;;;;;;;;;;;4949800;29;19921;-81
2022/11/19 07:54:08;;;;;;;;;;;;;;;;;;4963976;29;20413;-80
2022/11/19 07:56:33;;;;;;;;;;;;;;;;;;4965367;28;19915;-81
2022/11/19 07:58:59;;;;;;;;;;;;;;;;;;4963979;28;20001;-81
2022/11/19 08:01:25;;;;;;;;;;;;;;;;;;4962311;29;19938;-82
2022/11/19 08:03:51;;;;;;;;;;;;;;;;;;4963974;28;19914;-81
2022/11/19 08:06:16;;;;;;;;;;;;;;;;;;4962210;29;20255;-80
2022/11/19 08:08:41;;;;;;;;;;;;;;;;;;4963316;29;20009;-81
2022/11/19 08:11:07;;;;;;;;;;;;;;;;;;4961724;29;19921;-81
2022/11/19 08:13:32;;;;;;;;;;;;;;;;;;4963321;29;19918;-80
2022/11/19 08:15:58;;;;;;;;;;;;;;;;;;4945081;29;20326;-81
2022/11/19 08:18:23;;;;;;;;;;;;;;;;;;4965996;28;19950;-80
2022/11/19 08:20:49;;;;;;;;;;;;;;;;;;4962940;29;19914;-81
2022/11/19 08:23:14;;;;;;;;;;;;;;;;;;4963421;29;20366;-81
2022/11/19 08:25:40;;;;;;;;;;;;;;;;;;4963089;28;19923;-81
2022/11/19 08:28:05;;;;;;;;;;;;;;;;;;4961824;29;19922;-81
2022/11/19 08:30:31;;;;;;;;;;;;;;;;;;4946732;29;19974;-80
2022/11/19 08:32:56;;;;;;;;;;;;;;;;;;4946729;29;19926;-81
2022/11/19 08:35:21;;;;;;;;;;;;;;;;;;4963745;29;19921;-81
2022/11/19 08:37:47;;;;;;;;;;;;;;;;;;4962562;29;20382;-80
2022/11/19 08:40:12;;;;;;;;;;;;;;;;;;4962579;29;19924;-81
2022/11/19 08:43:20;;;;;;;;;;;;;;;;;;4962281;29;19984;-81
2022/11/19 08:45:26;;;;;;;;;;;;;;;;;;4961689;29;19914;-80
2022/11/19 08:47:52;;;;;;;;;;;;;;;;;;4948227;29;19939;-82
2022/11/19 08:50:17;;;;;;;;;;;;;;;;;;4964558;29;19915;-82
2022/11/19 08:52:43;;;;;;;;;;;;;;;;;;4965539;29;19922;-82
2022/11/19 08:55:08;;;;;;;;;;;;;;;;;;4949018;29;19915;-83
2022/11/19 08:57:34;;;;;;;;;;;;;;;;;;4966143;28;20255;-83
2022/11/19 08:59:59;;;;;;;;;;;;;;;;;;4949509;29;19984;-82
2022/11/19 09:02:24;;;;;;;;;;;;;;;;;;4947936;29;19965;-82
2022/11/19 09:04:50;;;;;;;;;;;;;;;;;;4962284;29;19914;-81
2022/11/19 09:07:15;;;;;;;;;;;;;;;;;;4960149;29;20271;-81
2022/11/19 09:09:40;;;;;;;;;;;;;;;;;;4959699;29;19918;-82
2022/11/19 09:12:06;;;;;;;;;;;;;;;;;;4961627;29;19914;-81
2022/11/19 09:14:31;;;;;;;;;;;;;;;;;;4960562;29;19919;-82
2022/11/19 09:16:57;;;;;;;;;;;;;;;;;;4960334;29;20345;-82
2022/11/19 09:19:22;;;;;;;;;;;;;;;;;;4944715;29;19981;-82
2022/11/19 09:21:48;;;;;;;;;;;;;;;;;;4961205;29;20357;-82
2022/11/19 09:24:13;;;;;;;;;;;;;;;;;;4960992;29;19919;-82
2022/11/19 09:26:47;;;;;;;;;;;;;;;;;;4960409;29;19942;-82
2022/11/19 09:29:13;;;;;;;;;;;;;;;;;;4961990;29;20283;-82
2022/11/19 09:31:38;;;;;;;;;;;;;;;;;;4950386;29;19914;-81
2022/11/19 09:34:04;;;;;;;;;;;;;;;;;;4968077;29;19922;-82
2022/11/19 09:36:29;;;;;;;;;;;;;;;;;;4967871;29;19922;-82
2022/11/19 09:38:54;;;;;;;;;;;;;;;;;;4961333;29;19914;-81
2022/11/19 09:41:20;;;;;;;;;;;;;;;;;;4959940;29;20286;-81
2022/11/19 09:43:45;;;;;;;;;;;;;;;;;;4960193;29;19910;-81
2022/11/19 09:46:11;;;;;;;;;;;;;;;;;;4959910;29;19946;-81
2022/11/19 09:48:36;;;;;;;;;;;;;;;;;;4943518;29;19915;-81
2022/11/19 09:51:02;;;;;;;;;;;;;;;;;;4959230;29;20274;-81
2022/11/19 09:53:29;;;;;;;;;;;;;;;;;;4942012;29;19922;-82
2022/11/19 09:55:54;;;;;;;;;;;;;;;;;;4958650;29;20369;-81
2022/11/19 09:58:20;;;;;;;;;;;;;;;;;;4960679;29;19914;-81
2022/11/19 10:00:45;;;;;;;;;;;;;;;;;;4958898;29;19934;-81
2022/11/19 10:03:11;;;;;;;;;;;;;;;;;;4927283;29;19921;-81
2022/11/19 10:05:36;;;;;;;;;;;;;;;;;;4943704;29;19964;-81
2022/11/19 10:08:02;;;;;;;;;;;;;;;;;;4960603;29;19963;-81
2022/11/19 10:10:27;;;;;;;;;;;;;;;;;;4962048;29;19915;-81
2022/11/19 10:12:52;;;;;;;;;;;;;;;;;;4945239;29;20005;-81
2022/11/19 10:15:18;;;;;;;;;;;;;;;;;;4963497;28;19918;-82
2022/11/19 10:17:44;;;;;;;;;;;;;;;;;;4963472;29;19938;-82
2022/11/19 10:20:09;;;;;;;;;;;;;;;;;;4963653;29;19935;-81
2022/11/19 10:22:35;;;;;;;;;;;;;;;;;;4962211;29;19987;-82
2022/11/19 10:25:00;;;;;;;;;;;;;;;;;;4960806;29;20385;-82
2022/11/19 10:27:25;;;;;;;;;;;;;;;;;;4946065;29;19922;-80
2022/11/19 10:29:51;;;;;;;;;;;;;;;;;;4962687;29;19914;-82
2022/11/19 10:32:16;;;;;;;;;;;;;;;;;;4964942;29;20289;-82
2022/11/19 10:34:42;;;;;;;;;;;;;;;;;;4964710;29;19911;-83
2022/11/19 10:37:07;;;;;;;;;;;;;;;;;;4965485;29;19914;-80
2022/11/19 10:39:32;;;;;;;;;;;;;;;;;;4964964;29;20671;-81
2022/11/19 10:41:58;;;;;;;;;;;;;;;;;;4965757;29;19915;-83
2022/11/19 10:44:36;;;;;;;;;;;;;;;;;;4966066;29;19918;-81
2022/11/19 10:47:01;;;;;;;;;;;;;;;;;;4967571;28;19915;-81
2022/11/19 10:49:27;;;;;;;;;;;;;;;;;;4964077;29;19938;-81
2022/11/19 10:51:52;;;;;;;;;;;;;;;;;;4963883;29;20433;-81
2022/11/19 10:54:20;;;;;;;;;;;;;;;;;;4948698;29;19919;-82
2022/11/19 10:56:45;;;;;;;;;;;;;;;;;;4950823;29;20266;-82
2022/11/19 10:59:11;;;;;;;;;;;;;;;;;;4969131;29;19921;-80
2022/11/19 11:01:36;;;;;;;;;;;;;;;;;;4963715;29;19914;-81
2022/11/19 11:04:01;;;;;;;;;;;;;;;;;;4964073;29;19910;-80
2022/11/19 11:06:27;;;;;;;;;;;;;;;;;;4968637;29;19915;-81
2022/11/19 11:08:52;;;;;;;;;;;;;;;;;;4947906;29;19914;-81
2022/11/19 11:11:18;;;;;;;;;;;;;;;;;;4962769;29;19994;-82
2022/11/19 11:16:30;;;;;;;;;;;;;;;;;;4947286;29;19982;-82
2022/11/19 11:18:55;;;;;;;;;;;;;;;;;;4965478;29;19918;-82
2022/11/19 11:21:21;;;;;;;;;;;;;;;;;;4948453;29;19914;-81
2022/11/19 11:23:47;;;;;;;;;;;;;;;;;;4962946;28;19914;-82
2022/11/19 11:26:12;;;;;;;;;;;;;;;;;;4962856;28;19915;-82
2022/11/19 11:28:38;;;;;;;;;;;;;;;;;;4965180;29;20286;-82
2022/11/19 11:31:03;;;;;;;;;;;;;;;;;;4966326;29;19951;-82
2022/11/19 11:33:28;;;;;;;;;;;;;;;;;;4966966;29;20275;-82
2022/11/19 11:35:54;;;;;;;;;;;;;;;;;;4950457;29;20378;-82
2022/11/19 11:38:22;;;;;;;;;;;;;;;;;;4962176;29;20429;-81
2022/11/19 11:40:47;;;;;;;;;;;;;;;;;;4945789;29;19918;-80
2022/11/19 11:43:13;;;;;;;;;;;;;;;;;;4959424;29;19970;-80
2022/11/19 11:45:38;;;;;;;;;;;;;;;;;;4960076;29;20294;-82
2022/11/19 11:48:04;;;;;;;;;;;;;;;;;;4961199;29;19918;-80
2022/11/19 11:50:29;;;;;;;;;;;;;;;;;;4958941;29;20274;-81
2022/11/19 11:52:54;;;;;;;;;;;;;;;;;;4960815;29;20385;-81
2022/11/19 11:55:20;;;;;;;;;;;;;;;;;;4942451;29;19914;-81
2022/11/19 11:57:45;;;;;;;;;;;;;;;;;;4959733;29;20375;-82
2022/11/19 12:00:10;;;;;;;;;;;;;;;;;;4960839;29;19922;-81
2022/11/19 12:02:36;;;;;;;;;;;;;;;;;;4961118;29;20079;-82
2022/11/19 12:05:01;;;;;;;;;;;;;;;;;;4960759;28;19919;-82
2022/11/19 12:07:27;;;;;;;;;;;;;;;;;;4960653;29;19915;-81
2022/11/19 12:09:52;;;;;;;;;;;;;;;;;;4960786;29;19914;-82
2022/11/19 12:12:18;;;;;;;;;;;;;;;;;;4957994;29;19923;-82
2022/11/19 12:14:43;;;;;;;;;;;;;;;;;;4959346;29;19918;-81
2022/11/19 12:17:09;;;;;;;;;;;;;;;;;;4960281;29;19926;-81
2022/11/19 12:19:34;;;;;;;;;;;;;;;;;;4958520;29;19914;-81
2022/11/19 12:22:00;;;;;;;;;;;;;;;;;;4960784;29;19914;-82
2022/11/19 12:24:28;;;;;;;;;;;;;;;;;;4960528;29;20297;-80
2022/11/19 12:26:54;;;;;;;;;;;;;;;;;;4962164;28;19918;-81
2022/11/19 12:29:19;;;;;;;;;;;;;;;;;;4960823;29;20330;-81
2022/11/19 12:31:45;;;;;;;;;;;;;;;;;;4961185;29;19914;-82
2022/11/19 12:34:10;;;;;;;;;;;;;;;;;;4963668;29;19918;-81
2022/11/19 12:36:35;;;;;;;;;;;;;;;;;;4947683;29;19914;-82
2022/11/19 12:39:01;;;;;;;;;;;;;;;;;;4965802;28;19922;-82
2022/11/19 12:41:26;;;;;;;;;;;;;;;;;;4966198;29;19977;-81
2022/11/19 12:43:52;;;;;;;;;;;;;;;;;;4972129;29;19987;-81
2022/11/19 12:46:17;;;;;;;;;;;;;;;;;;4965724;29;19910;-82
2022/11/19 12:48:43;;;;;;;;;;;;;;;;;;4963254;29;19915;-81
2022/11/19 12:51:10;;;;;;;;;;;;;;;;;;4962658;29;19921;-82
2022/11/19 12:53:36;;;;;;;;;;;;;;;;;;4964562;28;19918;-83
2022/11/19 12:56:01;;;;;;;;;;;;;;;;;;4967036;29;19915;-82
2022/11/19 12:58:27;;;;;;;;;;;;;;;;;;4971890;28;19914;-82
2022/11/19 13:00:52;;;;;;;;;;;;;;;;;;4957958;29;19930;-82
2022/11/19 13:03:20;;;;;;;;;;;;;;;;;;4956530;29;19915;-82
2022/11/19 13:05:45;;;;;;;;;;;;;;;;;;4970777;29;20000;-82
2022/11/19 13:08:13;;;;;;;;;;;;;;;;;;4952178;29;19914;-83
2022/11/19 13:10:39;;;;;;;;;;;;;;;;;;4970062;29;19914;-82
2022/11/19 13:13:04;;;;;;;;;;;;;;;;;;4969131;29;19922;-83
2022/11/19 13:15:30;;;;;;;;;;;;;;;;;;4969372;29;20301;-84
2022/11/19 13:17:56;;;;;;;;;;;;;;;;;;4968884;29;19921;-83
2022/11/19 13:20:21;;;;;;;;;;;;;;;;;;4967881;29;19946;-84
2022/11/19 13:22:46;;;;;;;;;;;;;;;;;;4964646;29;19977;-87
2022/11/19 13:25:12;;;;;;;;;;;;;;;;;;4970696;23;20342;-81
2022/11/19 13:27:37;;;;;;;;;;;;;;;;;;4958957;29;19914;-79
2022/11/19 13:30:02;;;;;;;;;;;;;;;;;;4958882;29;20385;-81
2022/11/19 13:32:28;;;;;;;;;;;;;;;;;;4957496;29;20405;-80
2022/11/19 13:34:54;;;;;;;;;;;;;;;;;;4956488;29;19915;-80
2022/11/19 13:37:19;;;;;;;;;;;;;;;;;;4956705;29;19922;-81
2022/11/19 13:39:44;;;;;;;;;;;;;;;;;;4939042;29;20005;-80
2022/11/19 13:44:54;;;;;;;;;;;;;;;;;;4941377;29;19915;-81
2022/11/19 13:47:20;;;;;;;;;;;;;;;;;;4958465;29;20010;-82
2022/11/19 13:49:45;;;;;;;;;;;;;;;;;;4957063;28;20298;-81
2022/11/19 13:52:10;;;;;;;;;;;;;;;;;;4939712;29;19915;-81
2022/11/19 13:54:36;;;;;;;;;;;;;;;;;;4956633;29;19919;-81
2022/11/19 13:57:01;;;;;;;;;;;;;;;;;;4955869;29;19970;-81
2022/11/19 13:59:27;;;;;;;;;;;;;;;;;;4954203;29;19965;-82
2022/11/19 14:01:54;;;;;;;;;;;;;;;;;;4955639;29;20401;-83
2022/11/19 14:04:19;;;;;;;;;;;;;;;;;;4955847;28;19937;-84
2022/11/19 14:06:45;;;;;;;;;;;;;;;;;;4954589;29;19914;-86
2022/11/19 14:09:14;;;;;;;;;;;;;;;;;;4955654;29;20402;-82
2022/11/19 14:11:39;;;;;;;;;;;;;;;;;;4955526;28;19925;-84
2022/11/19 14:14:04;;;;;;;;;;;;;;;;;;4954106;29;19914;-83
2022/11/19 14:27:12;;;;;;;;;;;;;;;;;;4962461;29;19946;-81
2022/11/19 14:29:37;;;;;;;;;;;;;;;;;;4962061;29;19922;-81
2022/11/19 14:32:05;;;;;;;;;;;;;;;;;;4961511;29;19958;-81
2022/11/19 14:34:31;;;;;;;;;;;;;;;;;;4964269;29;19915;-80
2022/11/19 14:36:56;;;;;;;;;;;;;;;;;;4966107;29;19914;-81
2022/11/19 14:39:22;;;;;;;;;;;;;;;;;;4962365;29;20318;-81
2022/11/19 14:41:47;;;;;;;;;;;;;;;;;;4961467;29;20339;-81
2022/11/19 14:44:13;;;;;;;;;;;;;;;;;;4958387;29;20318;-81
2022/11/19 14:46:38;;;;;;;;;;;;;;;;;;4959758;29;19921;-81
2022/11/19 14:49:04;;;;;;;;;;;;;;;;;;4957862;29;19911;-80
2022/11/19 14:51:29;;;;;;;;;;;;;;;;;;4958735;29;19914;-81
2022/11/19 14:53:55;;;;;;;;;;;;;;;;;;4957645;29;19918;-81
2022/11/19 14:56:20;;;;;;;;;;;;;;;;;;4959366;28;20461;-81
2022/11/19 14:58:45;;;;;;;;;;;;;;;;;;4959481;29;19954;-80
2022/11/19 15:01:14;;;;;;;;;;;;;;;;;;4959976;29;20374;-81
2022/11/19 15:03:42;;;;;;;;;;;;;;;;;;4959613;29;19914;-81
2022/11/19 15:06:10;;;;;;;;;;;;;;;;;;4959775;29;19977;-81
2022/11/19 15:08:36;;;;;;;;;;;;;;;;;;4961654;28;19983;-81
2022/11/19 15:11:01;;;;;;;;;;;;;;;;;;4961037;29;19977;-81
2022/11/19 15:13:27;;;;;;;;;;;;;;;;;;4962635;29;20378;-80
2022/11/19 15:15:52;;;;;;;;;;;;;;;;;;4962874;29;19918;-81
2022/11/19 15:18:18;;;;;;;;;;;;;;;;;;4961639;28;19914;-81
2022/11/19 15:20:43;;;;;;;;;;;;;;;;;;4959020;29;19921;-81
2022/11/19 15:23:09;;;;;;;;;;;;;;;;;;4959842;29;20347;-80
2022/11/19 15:25:34;;;;;;;;;;;;;;;;;;4957845;29;20398;-81
2022/11/19 15:28:00;;;;;;;;;;;;;;;;;;4959232;29;19958;-81
2022/11/19 15:30:25;;;;;;;;;;;;;;;;;;4958967;28;20294;-81
2022/11/19 15:32:51;;;;;;;;;;;;;;;;;;4959613;29;19961;-81
2022/11/19 15:35:16;;;;;;;;;;;;;;;;;;4958592;29;19910;-81
2022/11/19 15:37:42;;;;;;;;;;;;;;;;;;4957478;29;19914;-81
2022/11/19 15:40:07;;;;;;;;;;;;;;;;;;4959189;29;19982;-81
2022/11/19 15:42:32;;;;;;;;;;;;;;;;;;4959166;29;19950;-81
2022/11/19 15:44:58;;;;;;;;;;;;;;;;;;4959835;29;19982;-81
2022/11/19 15:47:23;;;;;;;;;;;;;;;;;;4956994;29;19922;-81
2022/11/19 15:49:48;;;;;;;;;;;;;;;;;;4957948;29;19916;-81
2022/11/19 15:52:14;;;;;;;;;;;;;;;;;;4957174;29;19961;-80
2022/11/19 15:54:40;;;;;;;;;;;;;;;;;;4957931;28;20049;-81
2022/11/19 15:57:05;;;;;;;;;;;;;;;;;;4957686;28;19914;-81
2022/11/19 15:59:31;;;;;;;;;;;;;;;;;;4956447;29;19966;-82
2022/11/19 16:01:58;;;;;;;;;;;;;;;;;;4957750;29;19925;-81
2022/11/19 16:04:23;;;;;;;;;;;;;;;;;;4956478;29;19984;-81
2022/11/19 16:06:49;;;;;;;;;;;;;;;;;;4957678;29;19922;-81
2022/11/19 16:09:14;;;;;;;;;;;;;;;;;;4958014;29;19998;-81
2022/11/19 16:19:54;;;;;;;;;;;;;;;;;;4961156;29;19914;-81
2022/11/19 16:22:20;;;;;;;;;;;;;;;;;;4964799;29;19979;-82
2022/11/19 16:25:01;;;;;;;;;;;;;;;;;;4966334;29;20290;-82
2022/11/19 16:27:26;;;;;;;;;;;;;;;;;;4965928;29;19914;-81
2022/11/19 16:29:51;;;;;;;;;;;;;;;;;;4966819;29;20298;-82
2022/11/19 16:32:17;;;;;;;;;;;;;;;;;;4965042;29;19936;-82
2022/11/19 16:34:42;;;;;;;;;;;;;;;;;;4965720;29;19914;-81
2022/11/19 16:37:08;;;;;;;;;;;;;;;;;;4967424;29;20003;-82
2022/11/19 16:39:33;;;;;;;;;;;;;;;;;;4965132;29;20275;-82
2022/11/19 16:42:17;;;;;;;;;;;;;;;;;;4965762;29;19915;-82
2022/11/19 16:44:42;;;;;;;;;;;;;;;;;;4965738;29;19915;-81
2022/11/19 16:47:08;;;;;;;;;;;;;;;;;;4965580;28;19937;-81
2022/11/19 16:49:33;;;;;;;;;;;;;;;;;;4965039;29;20005;-81
2022/11/19 16:51:59;;;;;;;;;;;;;;;;;;4946411;29;19914;-81
2022/11/19 16:54:24;;;;;;;;;;;;;;;;;;4946341;29;19922;-82
2022/11/19 16:56:49;;;;;;;;;;;;;;;;;;4962171;29;20007;-81
2022/11/19 16:59:15;;;;;;;;;;;;;;;;;;4963738;29;19915;-82
2022/11/19 17:01:40;;;;;;;;;;;;;;;;;;4943587;29;19997;-81
2022/11/19 17:04:06;;;;;;;;;;;;;;;;;;4957237;29;19915;-81
2022/11/19 17:06:31;;;;;;;;;;;;;;;;;;4956815;29;19973;-80
2022/11/19 17:08:59;;;;;;;;;;;;;;;;;;4957489;29;20009;-80
2022/11/19 17:14:08;;;;;;;;;;;;;;;;;;4957819;29;19965;-80
2022/11/19 17:16:34;;;;;;;;;;;;;;;;;;4956334;29;19919;-80
2022/11/19 17:18:59;;;;;;;;;;;;;;;;;;4940100;29;19914;-80
2022/11/19 17:21:25;;;;;;;;;;;;;;;;;;4957469;29;19915;-80
2022/11/19 17:23:50;;;;;;;;;;;;;;;;;;4956297;28;19922;-80
2022/11/19 17:26:16;;;;;;;;;;;;;;;;;;4957276;29;19929;-80
2022/11/19 17:28:44;;;;;;;;;;;;;;;;;;4958069;29;19935;-80
2022/11/19 17:31:09;;;;;;;;;;;;;;;;;;4956211;29;19922;-80
2022/11/19 17:33:34;;;;;;;;;;;;;;;;;;4957395;29;19918;-80
2022/11/19 17:36:00;;;;;;;;;;;;;;;;;;4958116;29;19918;-81
2022/11/19 17:38:28;;;;;;;;;;;;;;;;;;4958097;29;20441;-81